Terminal Aerodrome Forecast
Issued by NWS

Home | Current Version | Previous Version | Graphics & Text | Print | Product List | Glossary On
Versions: 1 2 3 4 5 6 7 8 9 10 11 12 13 14 15 16 17 18 19
000
FTUS43 KGRB 230520 AAA
TAFRHI
TAF AMD
KRHI 230520Z 2305/2406 VRB03KT 6SM BR SCT080 BKN100
      TEMPO 2305/2308 3SM BR SCT002
     FM230800 VRB03KT 4SM BR SCT080 BKN100
      TEMPO 2308/2311 1/4SM FG OVC002
     FM231300 28005KT 6SM BR SCT090
     FM231500 29010G18KT P6SM BKN045=

USA.gov is the U.S. government's official web portal to all federal, state and local government web resources and services.